createdAt,value
2018-06-15T00:01:02.978Z,15.90
2018-06-15T00:03:29.829Z,15.90
2018-06-15T00:05:57.088Z,15.90
2018-06-15T00:08:24.035Z,15.80
2018-06-15T00:10:50.986Z,15.80
2018-06-15T00:13:18.243Z,15.80
2018-06-15T00:15:45.094Z,15.90
2018-06-15T00:18:12.044Z,15.90
2018-06-15T00:20:38.892Z,15.80
2018-06-15T00:23:05.842Z,15.90
2018-06-15T00:25:33.408Z,15.90
2018-06-15T00:28:00.676Z,15.90
2018-06-15T00:30:27.414Z,15.90
2018-06-15T00:32:54.367Z,15.90
2018-06-15T00:35:21.215Z,15.90
2018-06-15T00:37:48.166Z,16.00
2018-06-15T00:40:15.425Z,16.00
2018-06-15T00:42:42.373Z,16.00
2018-06-15T00:45:09.324Z,16.00
2018-06-15T00:47:36.069Z,16.00
2018-06-15T00:50:03.021Z,16.00
2018-06-15T00:52:38.846Z,16.00
2018-06-15T00:55:06.038Z,16.00
2018-06-15T00:57:40.045Z,16.00
2018-06-15T01:00:06.996Z,16.10
2018-06-15T01:02:33.847Z,16.10
2018-06-15T01:05:00.595Z,16.20
2018-06-15T01:07:27.541Z,16.20
2018-06-15T01:09:54.391Z,16.20
2018-06-15T01:12:21.236Z,16.20
2018-06-15T01:14:48.189Z,16.30
2018-06-15T01:17:14.938Z,16.30
2018-06-15T01:19:42.396Z,16.30
2018-06-15T01:22:09.251Z,16.40
2018-06-15T01:24:36.199Z,16.40
2018-06-15T01:27:03.150Z,16.40
2018-06-15T01:29:30.201Z,16.40
2018-06-15T01:31:57.152Z,16.50
2018-06-15T01:34:24.104Z,16.50
2018-06-15T01:36:51.054Z,16.50
2018-06-15T01:39:18.007Z,16.60
2018-06-15T01:41:45.165Z,16.60
2018-06-15T01:44:12.420Z,16.60
2018-06-15T01:46:39.197Z,16.60
2018-06-15T01:49:06.016Z,16.60
2018-06-15T01:51:32.863Z,16.70
2018-06-15T01:53:59.816Z,16.70
2018-06-15T01:56:26.765Z,16.80
2018-06-15T01:58:53.614Z,16.80
2018-06-15T02:01:20.543Z,16.80
2018-06-15T02:03:47.724Z,16.80
2018-06-15T02:06:15.299Z,16.80
2018-06-15T02:08:42.344Z,16.90
2018-06-15T02:11:09.495Z,16.90
2018-06-15T02:13:36.343Z,16.90
2018-06-15T02:16:03.294Z,16.90
2018-06-15T02:18:30.040Z,16.90
2018-06-15T02:20:56.990Z,16.90
2018-06-15T02:23:23.946Z,16.90
2018-06-15T02:25:50.893Z,16.90
2018-06-15T02:28:17.645Z,16.90
2018-06-15T02:30:46.031Z,16.90
2018-06-15T02:33:12.974Z,16.90
2018-06-15T02:35:40.335Z,16.90
2018-06-15T02:38:07.183Z,16.90
2018-06-15T02:40:34.136Z,16.90
2018-06-15T02:43:00.984Z,16.90
2018-06-15T02:45:27.990Z,16.90
2018-06-15T02:47:54.885Z,16.90
2018-06-15T02:50:21.835Z,17.00
2018-06-15T02:52:48.685Z,16.90
2018-06-15T02:55:15.534Z,16.90
2018-06-15T02:57:42.796Z,16.90
2018-06-15T03:00:09.743Z,16.90
2018-06-15T03:02:36.909Z,16.90
2018-06-15T03:05:04.260Z,16.90
2018-06-15T03:07:31.210Z,16.90
2018-06-15T03:09:58.161Z,16.90
2018-06-15T03:12:25.112Z,17.00
2018-06-15T03:14:51.959Z,17.00
2018-06-15T03:17:18.914Z,17.10
2018-06-15T03:19:45.864Z,17.10
2018-06-15T03:22:12.711Z,17.10
2018-06-15T03:24:46.414Z,17.10
2018-06-15T03:27:13.160Z,17.10
2018-06-15T03:29:40.114Z,17.10
2018-06-15T03:32:07.881Z,17.10
2018-06-15T03:34:34.729Z,17.10
2018-06-15T03:37:01.579Z,17.20
2018-06-15T03:39:28.427Z,17.30
2018-06-15T03:41:55.378Z,17.30
2018-06-15T03:44:22.254Z,17.30
2018-06-15T03:46:49.187Z,17.40
2018-06-15T03:49:16.132Z,17.30
2018-06-15T03:51:42.980Z,17.30
2018-06-15T03:54:09.827Z,17.30
2018-06-15T03:56:36.676Z,17.30
2018-06-15T03:59:03.524Z,17.30
2018-06-15T04:01:30.374Z,17.30
2018-06-15T04:03:58.247Z,17.30
2018-06-15T04:06:25.092Z,17.20
2018-06-15T04:08:51.943Z,17.20
2018-06-15T04:11:18.892Z,17.20
2018-06-15T04:13:45.742Z,17.30
2018-06-15T04:16:12.785Z,17.20
2018-06-15T04:18:39.713Z,17.30
2018-06-15T04:21:07.005Z,17.40
2018-06-15T04:23:33.856Z,17.50
2018-06-15T04:26:01.407Z,17.60
2018-06-15T04:28:28.266Z,17.70
2018-06-15T04:30:55.206Z,17.70
2018-06-15T04:33:22.072Z,17.80
2018-06-15T04:35:49.023Z,18.10
2018-06-15T04:38:15.865Z,18.50
2018-06-15T04:40:42.615Z,19.40
2018-06-15T04:43:09.358Z,20.20
2018-06-15T04:45:37.648Z,23.00
2018-06-15T04:48:04.593Z,23.00
2018-06-15T04:50:31.545Z,23.60
2018-06-15T04:52:58.394Z,24.50
2018-06-15T04:55:25.241Z,24.30
2018-06-15T04:57:52.192Z,24.50
2018-06-15T05:00:19.038Z,24.70
2018-06-15T05:02:45.992Z,24.10
2018-06-15T05:05:12.849Z,23.60
2018-06-15T05:07:39.687Z,23.10
2018-06-15T05:10:06.638Z,22.70
2018-06-15T05:12:33.590Z,22.40
2018-06-15T05:15:01.290Z,22.00
2018-06-15T05:17:28.821Z,21.50
2018-06-15T05:19:55.772Z,22.10
2018-06-15T05:22:22.524Z,22.20
2018-06-15T05:24:49.469Z,22.40
2018-06-15T05:27:16.318Z,23.60
2018-06-15T05:29:43.091Z,24.30
2018-06-15T05:32:10.019Z,25.50
2018-06-15T05:34:37.068Z,26.50
2018-06-15T05:37:04.021Z,26.80
2018-06-15T05:39:30.973Z,27.50
2018-06-15T05:41:57.924Z,29.70
2018-06-15T05:44:24.676Z,30.50
2018-06-15T05:46:51.620Z,29.80
2018-06-15T05:49:18.569Z,30.40
2018-06-15T05:51:45.425Z,32.30
2018-06-15T05:54:12.369Z,30.50
2018-06-15T05:56:39.323Z,28.30
2018-06-15T05:59:06.182Z,26.90
2018-06-15T06:01:33.223Z,26.20
2018-06-15T06:04:00.177Z,25.30
2018-06-15T06:06:27.741Z,27.10
2018-06-15T06:08:54.588Z,27.10
2018-06-15T06:11:21.439Z,27.50
2018-06-15T06:13:48.288Z,27.80
2018-06-15T06:16:15.777Z,29.00
2018-06-15T06:18:43.210Z,28.90
2018-06-15T06:21:10.058Z,27.80
2018-06-15T06:23:36.907Z,28.50
2018-06-15T06:26:03.758Z,28.60
2018-06-15T06:28:30.605Z,30.00
2018-06-15T06:30:57.559Z,31.10
2018-06-15T06:33:24.407Z,31.70
2018-06-15T06:38:31.994Z,31.40
2018-06-15T06:40:58.949Z,31.30
2018-06-15T06:43:26.204Z,32.20
2018-06-15T06:45:53.155Z,31.40
2018-06-15T06:48:20.107Z,32.50
2018-06-15T06:50:46.959Z,30.40
2018-06-15T06:53:13.910Z,30.60
2018-06-15T06:55:40.757Z,31.50
2018-06-15T06:58:07.709Z,31.90
2018-06-15T07:00:34.765Z,31.60
2018-06-15T07:03:01.611Z,30.60
2018-06-15T07:05:28.767Z,31.80
2018-06-15T07:07:56.536Z,31.40
2018-06-15T07:10:23.591Z,28.60
2018-06-15T07:12:50.746Z,28.40
2018-06-15T07:15:18.121Z,29.10
2018-06-15T07:17:45.212Z,30.20
2018-06-15T07:20:13.161Z,29.80
2018-06-15T07:22:41.017Z,30.10
2018-06-15T07:25:08.576Z,32.10
2018-06-15T07:27:36.348Z,32.40
2018-06-15T07:30:03.914Z,32.90
2018-06-15T07:32:30.860Z,32.40
2018-06-15T07:34:58.140Z,33.00
2018-06-15T07:37:26.612Z,33.70
2018-06-15T07:39:53.968Z,34.60
2018-06-15T07:42:21.948Z,34.50
2018-06-15T07:44:48.996Z,34.50
2018-06-15T07:47:15.947Z,35.00
2018-06-15T07:49:43.230Z,34.20
2018-06-15T07:52:10.567Z,35.20
2018-06-15T07:54:37.517Z,34.80
2018-06-15T07:57:04.364Z,35.00
2018-06-15T07:59:31.164Z,34.30
2018-06-15T08:01:58.166Z,33.00
2018-06-15T08:04:25.525Z,32.30
2018-06-15T08:06:52.680Z,31.70
2018-06-15T08:09:19.736Z,32.20
2018-06-15T08:11:46.992Z,31.90
2018-06-15T08:14:14.148Z,32.30
2018-06-15T08:16:40.997Z,31.90
2018-06-15T08:19:07.819Z,31.80
2018-06-15T08:21:35.116Z,31.80
2018-06-15T08:24:02.059Z,31.40
2018-06-15T08:26:29.021Z,30.40
2018-06-15T08:28:55.959Z,31.40
2018-06-15T08:31:22.914Z,32.70
2018-06-15T08:33:49.682Z,32.80
2018-06-15T08:36:18.144Z,32.70
2018-06-15T08:38:49.089Z,32.60
2018-06-15T08:41:16.459Z,32.70
2018-06-15T08:43:43.705Z,32.50
2018-06-15T08:46:10.559Z,31.70
2018-06-15T08:48:37.726Z,31.60
2018-06-15T08:51:06.505Z,30.50
2018-06-15T08:53:33.456Z,30.50
2018-06-15T08:56:00.305Z,29.30
2018-06-15T08:58:27.563Z,27.80
2018-06-15T09:00:54.925Z,27.60
2018-06-15T09:03:21.878Z,26.70
2018-06-15T09:05:48.827Z,25.80
2018-06-15T09:08:15.781Z,25.40
2018-06-15T09:10:42.833Z,25.20
2018-06-15T09:13:09.781Z,25.70
2018-06-15T09:15:38.025Z,26.00
2018-06-15T09:18:06.050Z,25.80
2018-06-15T09:20:33.297Z,25.80
2018-06-15T09:23:00.760Z,26.00
2018-06-15T09:25:27.607Z,25.70
2018-06-15T09:27:54.559Z,25.30
2018-06-15T09:30:21.411Z,25.50
2018-06-15T09:32:48.360Z,24.90
2018-06-15T09:35:15.416Z,25.20
2018-06-15T09:37:42.367Z,25.40
2018-06-15T09:40:09.936Z,25.70
2018-06-15T09:42:37.396Z,25.60
2018-06-15T09:45:04.146Z,25.20
2018-06-15T09:47:30.989Z,25.40
2018-06-15T09:49:57.941Z,25.30
2018-06-15T09:52:24.687Z,25.30
2018-06-15T09:54:58.611Z,25.30
2018-06-15T09:57:26.265Z,25.40
2018-06-15T09:59:53.631Z,25.30
2018-06-15T10:02:20.680Z,25.30
2018-06-15T10:04:47.426Z,25.00
2018-06-15T10:07:14.378Z,25.30
2018-06-15T10:09:41.226Z,25.20
2018-06-15T10:12:08.590Z,24.90
2018-06-15T10:14:35.538Z,24.60
2018-06-15T10:17:02.497Z,24.30
2018-06-15T10:19:29.748Z,24.60
2018-06-15T10:21:56.905Z,24.60
2018-06-15T10:24:24.165Z,24.70
2018-06-15T10:26:51.118Z,24.30
2018-06-15T10:29:17.963Z,24.50
2018-06-15T10:31:45.121Z,24.20
2018-06-15T10:34:11.973Z,24.60
2018-06-15T10:36:41.846Z,24.50
2018-06-15T10:39:09.454Z,24.60
2018-06-15T10:41:43.929Z,24.60
2018-06-15T10:44:11.747Z,24.20
2018-06-15T10:46:39.038Z,24.20
2018-06-15T10:49:06.988Z,24.30
2018-06-15T10:51:33.931Z,24.50
2018-06-15T10:54:00.883Z,24.10
2018-06-15T10:56:28.041Z,23.80
2018-06-15T10:58:55.099Z,23.90
2018-06-15T11:01:22.248Z,24.00
2018-06-15T11:03:49.200Z,23.80
2018-06-15T11:06:16.766Z,23.90
2018-06-15T11:08:44.129Z,23.80
2018-06-15T11:11:10.974Z,23.80
2018-06-15T11:13:37.826Z,23.80
2018-06-15T11:16:04.778Z,23.90
2018-06-15T11:18:31.727Z,23.90
2018-06-15T11:20:58.677Z,24.10
2018-06-15T11:23:25.937Z,24.20
2018-06-15T11:25:52.889Z,24.30
2018-06-15T11:28:20.249Z,24.50
2018-06-15T11:30:47.099Z,24.10
2018-06-15T11:33:13.946Z,24.30
2018-06-15T11:35:40.898Z,23.90
2018-06-15T11:38:07.848Z,24.00
2018-06-15T11:40:34.708Z,23.70
2018-06-15T11:43:01.754Z,24.00
2018-06-15T11:45:28.805Z,24.00
2018-06-15T11:47:55.663Z,23.90
2018-06-15T11:50:22.505Z,24.20
2018-06-15T11:52:49.560Z,23.70
2018-06-15T11:55:16.511Z,23.90
2018-06-15T11:57:43.769Z,23.70
2018-06-15T12:00:10.823Z,23.70
2018-06-15T12:02:37.669Z,23.70
2018-06-15T12:05:04.621Z,23.60
2018-06-15T12:07:31.574Z,23.40
2018-06-15T12:09:58.524Z,23.30
2018-06-15T12:12:25.377Z,23.60
2018-06-15T12:14:52.225Z,23.70
2018-06-15T12:17:19.172Z,23.50
2018-06-15T12:19:46.022Z,23.30
2018-06-15T12:22:12.875Z,23.30
2018-06-15T12:24:39.823Z,23.60
2018-06-15T12:27:06.677Z,23.50
2018-06-15T12:29:33.524Z,23.40
2018-06-15T12:32:00.882Z,23.30
2018-06-15T12:34:27.836Z,23.40
2018-06-15T12:36:55.198Z,23.20
2018-06-15T12:39:21.940Z,23.40
2018-06-15T12:41:49.307Z,23.60
2018-06-15T12:44:16.255Z,23.20
2018-06-15T12:46:43.511Z,22.90
2018-06-15T12:49:10.305Z,23.20
2018-06-15T12:51:37.312Z,23.50
2018-06-15T12:54:04.262Z,23.60
2018-06-15T12:56:31.623Z,23.50
2018-06-15T12:58:58.472Z,23.40
2018-06-15T13:01:25.729Z,23.60
2018-06-15T13:03:52.681Z,23.80
2018-06-15T13:06:20.043Z,23.50
2018-06-15T13:08:47.299Z,22.90
2018-06-15T13:11:14.251Z,22.80
2018-06-15T13:13:41.202Z,23.00
2018-06-15T13:16:08.562Z,22.90
2018-06-15T13:18:35.514Z,23.10
2018-06-15T13:21:03.402Z,23.10
2018-06-15T13:23:30.648Z,22.90
2018-06-15T13:25:57.782Z,22.80
2018-06-15T13:28:26.493Z,22.70
2018-06-15T13:30:54.057Z,22.40
2018-06-15T13:33:20.804Z,22.60
2018-06-15T13:35:47.758Z,22.80
2018-06-15T13:38:14.606Z,23.00
2018-06-15T13:40:41.555Z,23.10
2018-06-15T13:43:08.509Z,22.80
2018-06-15T13:45:35.356Z,23.00
2018-06-15T13:48:02.126Z,22.80
2018-06-15T13:50:29.056Z,22.90
2018-06-15T13:52:56.006Z,23.00
2018-06-15T13:55:22.854Z,23.20
2018-06-15T13:57:49.808Z,23.20
2018-06-15T14:00:18.017Z,23.20
2018-06-15T14:02:44.833Z,23.10
2018-06-15T14:05:11.683Z,22.90
2018-06-15T14:07:38.866Z,23.00
2018-06-15T14:10:06.407Z,23.10
2018-06-15T14:12:33.867Z,23.20
2018-06-15T14:15:00.822Z,23.10
2018-06-15T14:17:35.037Z,22.80
2018-06-15T14:20:01.991Z,22.70
2018-06-15T14:22:29.860Z,22.60
2018-06-15T14:24:56.814Z,22.60
2018-06-15T14:27:23.659Z,22.50
2018-06-15T14:29:50.615Z,22.30
2018-06-15T14:32:17.462Z,22.30
2018-06-15T14:34:44.309Z,22.30
2018-06-15T14:37:11.264Z,22.00
2018-06-15T14:39:38.110Z,22.00
2018-06-15T14:42:05.267Z,22.10
2018-06-15T14:44:32.216Z,22.20
2018-06-15T14:46:59.887Z,22.20
2018-06-15T14:49:26.939Z,22.20
2018-06-15T14:51:53.696Z,22.10
2018-06-15T14:54:21.356Z,22.20
2018-06-15T14:56:49.979Z,22.20
2018-06-15T14:59:17.512Z,22.20
2018-06-15T15:01:44.356Z,22.00
2018-06-15T15:04:11.109Z,22.20
2018-06-15T15:06:38.056Z,22.30
2018-06-15T15:09:05.005Z,22.20
2018-06-15T15:11:31.858Z,22.20
2018-06-15T15:13:58.804Z,22.30
2018-06-15T15:16:25.762Z,22.30
2018-06-15T15:18:53.322Z,22.30
2018-06-15T15:21:20.084Z,22.30
2018-06-15T15:23:47.022Z,22.40
2018-06-15T15:26:13.870Z,22.40
2018-06-15T15:28:40.820Z,22.30
2018-06-15T15:31:08.080Z,21.90
2018-06-15T15:33:34.930Z,21.70
2018-06-15T15:36:01.880Z,21.60
2018-06-15T15:38:29.242Z,21.60
2018-06-15T15:40:56.190Z,21.60
2018-06-15T15:43:23.039Z,21.70
2018-06-15T15:45:50.093Z,21.60
2018-06-15T15:48:18.274Z,21.70
2018-06-15T15:50:45.226Z,21.70
2018-06-15T15:53:12.076Z,21.70
2018-06-15T15:55:39.026Z,21.60
2018-06-15T15:58:06.387Z,21.50
2018-06-15T16:00:34.155Z,21.30
2018-06-15T16:03:01.109Z,21.30
2018-06-15T16:05:28.061Z,21.30
2018-06-15T16:07:54.910Z,21.30
2018-06-15T16:10:21.862Z,21.20
2018-06-15T16:12:48.812Z,21.20
2018-06-15T16:15:15.764Z,21.20
2018-06-15T16:17:42.615Z,21.20
2018-06-15T16:20:09.575Z,21.10
2018-06-15T16:22:36.820Z,21.00
2018-06-15T16:25:04.796Z,21.00
2018-06-15T16:27:32.566Z,21.00
2018-06-15T16:29:59.825Z,21.00
2018-06-15T16:32:27.184Z,21.00
2018-06-15T16:34:54.146Z,21.00
2018-06-15T16:37:21.402Z,20.90
2018-06-15T16:39:48.350Z,20.80
2018-06-15T16:42:15.104Z,20.70
2018-06-15T16:44:41.943Z,20.70
2018-06-15T16:47:08.996Z,20.70
2018-06-15T16:49:37.071Z,20.60
2018-06-15T16:52:04.025Z,20.60
2018-06-15T16:54:31.078Z,20.60
2018-06-15T16:56:58.435Z,20.60
2018-06-15T16:59:26.514Z,20.60
2018-06-15T17:01:53.781Z,20.60
2018-06-15T17:04:21.134Z,20.60
2018-06-15T17:06:48.086Z,20.60
2018-06-15T17:09:14.954Z,20.50
2018-06-15T17:11:42.823Z,20.40
2018-06-15T17:14:10.067Z,20.40
2018-06-15T17:16:36.914Z,20.40
2018-06-15T17:19:03.967Z,20.30
2018-06-15T17:21:30.917Z,20.30
2018-06-15T17:23:58.791Z,20.30
2018-06-15T17:26:25.848Z,20.30
2018-06-15T17:28:53.008Z,20.20
2018-06-15T17:31:21.354Z,20.10
2018-06-15T17:33:48.234Z,20.10
2018-06-15T17:36:15.184Z,20.10
2018-06-15T17:38:42.547Z,20.10
2018-06-15T17:41:09.497Z,20.00
2018-06-15T17:43:36.551Z,20.00
2018-06-15T17:46:03.810Z,20.00
2018-06-15T17:48:31.069Z,20.00
2018-06-15T17:50:58.782Z,19.80
2018-06-15T17:53:26.095Z,19.70
2018-06-15T17:55:52.841Z,19.70
2018-06-15T17:58:19.691Z,19.70
2018-06-15T18:00:46.642Z,19.60
2018-06-15T18:03:13.494Z,19.50
2018-06-15T18:05:40.443Z,19.60
2018-06-15T18:08:07.395Z,19.50
2018-06-15T18:10:34.394Z,19.40
2018-06-15T18:13:01.407Z,19.30
2018-06-15T18:15:28.350Z,19.30
2018-06-15T18:17:55.300Z,19.20
2018-06-15T18:20:22.766Z,19.10
2018-06-15T18:22:49.715Z,19.00
2018-06-15T18:25:16.666Z,18.90
2018-06-15T18:27:44.030Z,18.90
2018-06-15T18:30:10.876Z,18.90
2018-06-15T18:32:37.930Z,18.80
2018-06-15T18:35:04.691Z,18.80
2018-06-15T18:37:31.633Z,18.70
2018-06-15T18:39:58.479Z,18.70
2018-06-15T18:42:25.429Z,18.60
2018-06-15T18:44:52.278Z,18.50
2018-06-15T18:47:19.228Z,18.50
2018-06-15T18:49:46.182Z,18.40
2018-06-15T18:52:13.848Z,18.30
2018-06-15T18:54:40.858Z,18.20
2018-06-15T18:57:09.183Z,18.10
2018-06-15T18:59:36.134Z,18.10
2018-06-15T19:02:03.087Z,18.00
2018-06-15T19:04:30.039Z,17.90
2018-06-15T19:06:56.988Z,17.90
2018-06-15T19:09:23.739Z,17.70
2018-06-15T19:11:50.690Z,17.60
2018-06-15T19:14:17.842Z,17.50
2018-06-15T19:16:44.727Z,17.40
2018-06-15T19:19:11.850Z,17.30
2018-06-15T19:21:38.698Z,17.20
2018-06-15T19:24:05.652Z,17.10
2018-06-15T19:26:32.566Z,17.00
2018-06-15T19:29:00.324Z,16.80
2018-06-15T19:31:27.323Z,16.80
2018-06-15T19:33:54.277Z,16.70
2018-06-15T19:36:21.223Z,16.60
2018-06-15T19:38:48.176Z,16.50
2018-06-15T19:41:15.026Z,16.40
2018-06-15T19:43:42.284Z,16.20
2018-06-15T19:46:09.233Z,16.10
2018-06-15T19:48:35.985Z,15.90
2018-06-15T19:51:02.930Z,15.80
2018-06-15T19:53:29.985Z,15.60
2018-06-15T19:55:56.841Z,15.50
2018-06-15T19:58:23.786Z,15.40
2018-06-15T20:00:50.739Z,15.30
2018-06-15T20:03:17.892Z,15.20
2018-06-15T20:05:44.845Z,15.00
2018-06-15T20:08:11.795Z,14.90
2018-06-15T20:10:38.950Z,14.80
2018-06-15T20:13:06.210Z,14.60
2018-06-15T20:15:33.060Z,14.60
2018-06-15T20:18:00.319Z,14.50
2018-06-15T20:20:27.165Z,14.40
2018-06-15T20:22:54.113Z,14.30
2018-06-15T20:25:21.627Z,14.20
2018-06-15T20:27:48.637Z,14.10
2018-06-15T20:30:15.687Z,14.00
2018-06-15T20:32:42.641Z,13.80
2018-06-15T20:35:09.492Z,13.70
2018-06-15T20:37:36.338Z,13.40
2018-06-15T20:40:03.698Z,13.30
2018-06-15T20:42:30.759Z,13.20
2018-06-15T20:44:58.624Z,13.00
2018-06-15T20:47:25.482Z,12.90
2018-06-15T20:49:52.425Z,12.80
2018-06-15T20:52:19.584Z,12.70
2018-06-15T20:54:46.736Z,12.60
2018-06-15T20:57:13.689Z,12.50
2018-06-15T20:59:40.638Z,12.40
2018-06-15T21:02:07.487Z,12.30
2018-06-15T21:04:34.442Z,12.30
2018-06-15T21:07:01.289Z,12.20
2018-06-15T21:09:28.546Z,12.00
2018-06-15T21:11:55.769Z,12.00
2018-06-15T21:14:23.370Z,11.80
2018-06-15T21:16:50.530Z,11.70
2018-06-15T21:19:17.479Z,11.70
2018-06-15T21:21:44.325Z,11.50
2018-06-15T21:24:11.279Z,11.50
2018-06-15T21:26:38.741Z,11.40
2018-06-15T21:29:05.693Z,11.30
2018-06-15T21:31:32.542Z,11.30
2018-06-15T21:33:59.801Z,11.20
2018-06-15T21:36:26.756Z,11.10
2018-06-15T21:38:53.704Z,11.00
2018-06-15T21:41:20.655Z,11.00
2018-06-15T21:43:47.504Z,11.00
2018-06-15T21:46:15.170Z,10.90
2018-06-15T21:48:42.326Z,10.90
2018-06-15T21:51:10.630Z,10.90
2018-06-15T21:53:37.869Z,10.80
2018-06-15T21:56:05.431Z,10.90
2018-06-15T21:58:32.691Z,10.80
2018-06-15T22:00:59.542Z,10.80
2018-06-15T22:03:27.206Z,10.80
2018-06-15T22:05:54.362Z,10.70
2018-06-15T22:08:21.622Z,10.70
2018-06-15T22:10:48.678Z,10.70
2018-06-15T22:13:15.626Z,10.60
2018-06-15T22:15:42.578Z,10.50
2018-06-15T22:18:09.427Z,10.40
2018-06-15T22:20:36.480Z,10.40
2018-06-15T22:23:03.330Z,10.30
2018-06-15T22:25:30.283Z,10.30
2018-06-15T22:27:57.237Z,10.20
2018-06-15T22:30:24.083Z,10.10
2018-06-15T22:32:51.239Z,10.00
2018-06-15T22:35:18.395Z,10.00
2018-06-15T22:37:45.250Z,10.00
2018-06-15T22:40:13.013Z,9.90
2018-06-15T22:42:40.270Z,9.90
2018-06-15T22:45:07.633Z,9.80
2018-06-15T22:47:35.286Z,9.80
2018-06-15T22:50:02.147Z,9.80
2018-06-15T22:52:29.099Z,9.80
2018-06-15T22:54:56.055Z,9.80
2018-06-15T22:57:23.923Z,9.70
2018-06-15T22:59:50.772Z,9.70
2018-06-15T23:02:17.620Z,9.60
2018-06-15T23:04:44.886Z,9.70
2018-06-15T23:07:12.240Z,9.70
2018-06-15T23:09:39.089Z,9.60
2018-06-15T23:12:05.939Z,9.60
2018-06-15T23:14:32.788Z,9.50
2018-06-15T23:16:59.637Z,9.50
2018-06-15T23:19:26.592Z,9.50
2018-06-15T23:21:53.949Z,9.50
2018-06-15T23:24:21.104Z,9.50
2018-06-15T23:26:47.955Z,9.50
2018-06-15T23:29:15.211Z,9.40
2018-06-15T23:31:42.060Z,9.40
2018-06-15T23:34:09.219Z,9.40
2018-06-15T23:36:36.170Z,9.30
2018-06-15T23:39:03.123Z,9.40
2018-06-15T23:41:29.970Z,9.30
2018-06-15T23:43:56.817Z,9.30
2018-06-15T23:46:23.666Z,9.30
2018-06-15T23:48:51.029Z,9.30
2018-06-15T23:51:18.183Z,9.40
2018-06-15T23:53:46.466Z,9.50
2018-06-15T23:56:13.210Z,9.40
2018-06-15T23:58:40.883Z,9.50
